createdAt,value
2018-05-11T00:00:48.548Z,62.79
2018-05-11T00:03:16.101Z,62.99
2018-05-11T00:05:43.804Z,62.73
2018-05-11T00:08:11.424Z,62.71
2018-05-11T00:10:38.961Z,62.74
2018-05-11T00:13:06.540Z,62.71
2018-05-11T00:15:34.097Z,62.55
2018-05-11T00:18:01.645Z,63.14
2018-05-11T00:20:29.208Z,63.12
2018-05-11T00:22:56.736Z,63.00
2018-05-11T00:25:24.253Z,63.76
2018-05-11T00:27:52.040Z,64.16
2018-05-11T00:30:19.573Z,64.00
2018-05-11T00:32:47.101Z,64.22
2018-05-11T00:35:14.980Z,64.11
2018-05-11T00:37:42.513Z,64.35
2018-05-11T00:40:10.036Z,64.40
2018-05-11T00:42:38.120Z,66.04
2018-05-11T00:45:05.640Z,65.35
2018-05-11T00:47:33.157Z,64.77
2018-05-11T00:50:00.713Z,65.05
2018-05-11T00:52:28.248Z,65.56
2018-05-11T00:54:55.801Z,65.47
2018-05-11T00:57:23.467Z,65.94
2018-05-11T00:59:50.981Z,65.69
2018-05-11T01:02:18.512Z,66.22
2018-05-11T01:04:46.877Z,67.84
2018-05-11T01:07:14.332Z,66.32
2018-05-11T01:09:41.860Z,65.71
2018-05-11T01:12:09.418Z,66.30
2018-05-11T01:14:37.434Z,65.78
2018-05-11T01:17:04.957Z,65.28
2018-05-11T01:19:32.736Z,65.77
2018-05-11T01:22:00.269Z,65.23
2018-05-11T01:24:27.804Z,65.04
2018-05-11T01:26:55.361Z,65.31
2018-05-11T01:29:22.882Z,64.80
2018-05-11T01:31:50.395Z,64.81
2018-05-11T01:34:18.196Z,64.28
2018-05-11T01:36:45.713Z,64.57
2018-05-11T01:39:13.229Z,64.45
2018-05-11T01:41:40.868Z,64.29
2018-05-11T01:44:08.604Z,63.93
2018-05-11T01:46:36.132Z,63.65
2018-05-11T01:49:03.785Z,63.19
2018-05-11T01:51:31.317Z,63.49
2018-05-11T01:53:58.841Z,63.46
2018-05-11T01:56:26.645Z,63.13
2018-05-11T01:58:54.169Z,63.12
2018-05-11T02:01:21.689Z,62.98
2018-05-11T02:03:49.630Z,63.67
2018-05-11T02:06:17.148Z,63.84
2018-05-11T02:08:44.692Z,63.21
2018-05-11T02:11:12.261Z,64.57
2018-05-11T02:13:39.813Z,64.51
2018-05-11T02:16:07.361Z,64.99
2018-05-11T02:18:35.166Z,64.17
2018-05-11T02:21:02.643Z,64.23
2018-05-11T02:23:30.153Z,64.27
2018-05-11T02:25:57.914Z,64.80
2018-05-11T02:28:25.437Z,63.93
2018-05-11T02:30:52.966Z,64.56
2018-05-11T02:33:20.866Z,64.56
2018-05-11T02:35:48.387Z,66.37
2018-05-11T02:38:15.906Z,66.00
2018-05-11T02:40:43.468Z,65.49
2018-05-11T02:43:11.000Z,64.15
2018-05-11T02:45:38.513Z,64.19
2018-05-11T02:48:06.518Z,63.80
2018-05-11T02:50:34.049Z,64.37
2018-05-11T02:53:01.573Z,64.04
2018-05-11T02:55:29.388Z,64.09
2018-05-11T02:57:56.912Z,64.18
2018-05-11T03:00:24.464Z,64.19
2018-05-11T03:02:52.052Z,64.01
2018-05-11T03:05:19.578Z,63.92
2018-05-11T03:07:47.331Z,64.20
2018-05-11T03:10:15.366Z,64.65
2018-05-11T03:12:43.273Z,64.92
2018-05-11T03:15:10.792Z,64.96
2018-05-11T03:17:38.664Z,64.92
2018-05-11T03:20:06.205Z,64.74
2018-05-11T03:22:33.724Z,65.00
2018-05-11T03:25:01.537Z,65.22
2018-05-11T03:27:29.071Z,65.56
2018-05-11T03:29:56.592Z,65.65
2018-05-11T03:32:24.316Z,65.51
2018-05-11T03:34:51.850Z,65.59
2018-05-11T03:37:19.373Z,65.71
2018-05-11T03:39:47.264Z,65.96
2018-05-11T03:42:14.792Z,66.15
2018-05-11T03:44:42.422Z,66.07
2018-05-11T03:47:10.392Z,65.99
2018-05-11T03:49:37.908Z,65.89
2018-05-11T03:52:05.431Z,66.41
2018-05-11T03:54:32.995Z,66.16
2018-05-11T03:57:00.518Z,65.86
2018-05-11T03:59:28.029Z,65.75
2018-05-11T04:02:07.524Z,65.82
2018-05-11T04:04:46.688Z,65.88
2018-05-11T04:07:26.081Z,65.72
2018-05-11T04:09:53.624Z,65.77
2018-05-11T04:12:21.146Z,65.91
2018-05-11T04:14:48.713Z,66.04
2018-05-11T04:17:16.236Z,65.63
2018-05-11T04:19:43.755Z,65.41
2018-05-11T04:22:11.760Z,65.39
2018-05-11T04:24:39.281Z,65.57
2018-05-11T04:27:06.811Z,65.64
2018-05-11T04:29:34.384Z,65.50
2018-05-11T04:32:01.901Z,65.12
2018-05-11T04:34:29.425Z,65.14
2018-05-11T04:36:56.981Z,64.75
2018-05-11T04:39:24.525Z,65.08
2018-05-11T04:41:52.060Z,65.00
2018-05-11T04:44:19.632Z,64.82
2018-05-11T04:46:47.195Z,65.43
2018-05-11T04:49:14.712Z,65.06
2018-05-11T04:51:42.700Z,64.71
2018-05-11T04:54:10.232Z,64.95
2018-05-11T04:56:37.744Z,64.78
2018-05-11T04:59:05.551Z,65.06
2018-05-11T05:01:33.065Z,64.48
2018-05-11T05:04:01.521Z,64.08
2018-05-11T05:06:29.073Z,63.47
2018-05-11T05:08:56.586Z,63.25
2018-05-11T05:11:24.110Z,63.22
2018-05-11T05:13:51.733Z,62.85
2018-05-11T05:16:19.253Z,62.64
2018-05-11T05:18:46.767Z,62.04
2018-05-11T05:21:14.516Z,61.58
2018-05-11T05:23:42.031Z,60.70
2018-05-11T05:26:09.549Z,60.61
2018-05-11T05:28:37.101Z,60.01
2018-05-11T05:31:04.622Z,60.16
2018-05-11T05:33:32.208Z,59.65
2018-05-11T05:35:59.768Z,59.20
2018-05-11T05:38:27.285Z,59.14
2018-05-11T05:40:54.830Z,58.94
2018-05-11T05:43:22.484Z,58.78
2018-05-11T05:45:50.042Z,59.99
2018-05-11T05:48:17.561Z,59.73
2018-05-11T05:50:45.121Z,59.73
2018-05-11T05:53:12.647Z,59.84
2018-05-11T05:55:40.190Z,59.60
2018-05-11T05:58:07.906Z,58.39
2018-05-11T06:00:35.427Z,58.53
2018-05-11T06:03:02.940Z,58.62
2018-05-11T06:05:30.785Z,58.36
2018-05-11T06:07:58.298Z,57.66
2018-05-11T06:10:25.810Z,57.20
2018-05-11T06:12:53.868Z,56.60
2018-05-11T06:15:21.380Z,55.50
2018-05-11T06:17:48.900Z,54.97
2018-05-11T06:20:16.653Z,54.55
2018-05-11T06:22:44.645Z,53.86
2018-05-11T06:25:12.182Z,53.60
2018-05-11T06:27:39.741Z,52.78
2018-05-11T06:30:07.304Z,51.73
2018-05-11T06:32:34.843Z,49.45
2018-05-11T06:35:02.521Z,48.82
2018-05-11T06:37:30.072Z,47.48
2018-05-11T06:39:57.622Z,46.20
2018-05-11T06:42:25.240Z,44.60
2018-05-11T06:44:52.780Z,43.54
2018-05-11T06:47:20.326Z,43.52
2018-05-11T06:49:47.872Z,43.26
2018-05-11T06:52:15.393Z,45.98
2018-05-11T06:54:42.917Z,45.98
2018-05-11T06:57:10.654Z,44.83
2018-05-11T06:59:38.169Z,45.08
2018-05-11T07:02:05.689Z,43.50
2018-05-11T07:04:33.236Z,44.60
2018-05-11T07:07:00.770Z,45.27
2018-05-11T07:09:28.297Z,43.65
2018-05-11T07:11:55.993Z,43.02
2018-05-11T07:14:23.525Z,42.81
2018-05-11T07:16:51.062Z,42.17
2018-05-11T07:19:18.826Z,42.07
2018-05-11T07:21:46.333Z,40.45
2018-05-11T07:24:13.876Z,39.65
2018-05-11T07:26:41.801Z,39.62
2018-05-11T07:29:09.362Z,40.28
2018-05-11T07:31:36.903Z,40.33
2018-05-11T07:34:04.807Z,38.80
2018-05-11T07:36:32.437Z,38.42
2018-05-11T07:39:00.002Z,38.12
2018-05-11T07:41:27.856Z,38.46
2018-05-11T07:43:55.374Z,39.14
2018-05-11T07:46:23.080Z,40.75
2018-05-11T07:48:50.746Z,41.11
2018-05-11T07:51:18.269Z,41.08
2018-05-11T07:53:45.822Z,41.03
2018-05-11T07:56:13.394Z,41.01
2018-05-11T07:58:40.935Z,41.76
2018-05-11T08:01:08.457Z,40.11
2018-05-11T08:03:36.421Z,40.50
2018-05-11T08:06:03.980Z,40.04
2018-05-11T08:08:31.582Z,42.29
2018-05-11T08:10:59.292Z,42.09
2018-05-11T08:13:26.832Z,42.72
2018-05-11T08:15:54.359Z,40.85
2018-05-11T08:18:22.091Z,41.24
2018-05-11T08:20:49.622Z,40.90
2018-05-11T08:23:17.245Z,40.96
2018-05-11T08:25:44.800Z,40.91
2018-05-11T08:28:12.311Z,39.31
2018-05-11T08:30:39.843Z,39.75
2018-05-11T08:33:07.441Z,40.54
2018-05-11T08:35:34.967Z,40.17
2018-05-11T08:38:02.508Z,40.64
2018-05-11T08:40:30.078Z,40.62
2018-05-11T08:42:57.665Z,40.03
2018-05-11T08:45:25.199Z,39.38
2018-05-11T08:47:52.757Z,38.24
2018-05-11T08:50:20.285Z,36.79
2018-05-11T08:52:47.833Z,36.03
2018-05-11T08:55:15.765Z,34.59
2018-05-11T08:57:43.297Z,29.50
2018-05-11T09:00:10.836Z,30.89
2018-05-11T09:02:38.554Z,31.43
2018-05-11T09:05:06.226Z,30.51
2018-05-11T09:07:33.887Z,28.83
2018-05-11T09:10:02.435Z,30.54
2018-05-11T09:12:30.302Z,29.98
2018-05-11T09:14:59.147Z,29.62
2018-05-11T09:17:26.882Z,28.38
2018-05-11T09:19:54.653Z,29.00
2018-05-11T09:22:22.316Z,29.28
2018-05-11T09:24:49.904Z,28.97
2018-05-11T09:27:17.446Z,29.61
2018-05-11T09:29:45.076Z,29.76
2018-05-11T09:32:12.654Z,31.76
2018-05-11T09:34:40.625Z,33.34
2018-05-11T09:37:08.168Z,31.70
2018-05-11T09:39:36.059Z,31.29
2018-05-11T09:42:03.502Z,31.65
2018-05-11T09:44:31.022Z,32.84
2018-05-11T09:46:58.573Z,32.10
2018-05-11T09:49:26.193Z,32.13
2018-05-11T09:51:53.675Z,29.91
2018-05-11T09:54:21.377Z,30.39
2018-05-11T09:56:48.901Z,31.76
2018-05-11T09:59:16.421Z,31.60
2018-05-11T10:01:44.201Z,31.06
2018-05-11T10:04:11.717Z,31.20
2018-05-11T10:06:39.248Z,32.67
2018-05-11T10:09:06.950Z,31.62
2018-05-11T10:11:34.482Z,29.83
2018-05-11T10:14:02.020Z,26.34
2018-05-11T10:16:29.748Z,24.42
2018-05-11T10:18:57.408Z,22.80
2018-05-11T10:21:25.037Z,24.04
2018-05-11T10:23:52.633Z,27.05
2018-05-11T10:26:20.180Z,28.49
2018-05-11T10:28:47.738Z,27.38
2018-05-11T10:31:15.596Z,24.56
2018-05-11T10:33:43.125Z,23.86
2018-05-11T10:36:10.649Z,25.68
2018-05-11T10:38:38.222Z,27.71
2018-05-11T10:41:05.761Z,29.98
2018-05-11T10:43:33.298Z,30.36
2018-05-11T10:46:01.153Z,29.36
2018-05-11T10:48:28.764Z,30.87
2018-05-11T10:50:56.341Z,30.42
2018-05-11T10:53:24.148Z,30.79
2018-05-11T10:55:51.728Z,29.64
2018-05-11T10:58:19.293Z,28.30
2018-05-11T11:00:47.025Z,26.45
2018-05-11T11:03:14.553Z,26.33
2018-05-11T11:05:42.076Z,25.55
2018-05-11T11:08:10.042Z,21.71
2018-05-11T11:10:37.561Z,19.91
2018-05-11T11:13:05.098Z,20.68
2018-05-11T11:15:32.663Z,24.14
2018-05-11T11:18:00.176Z,22.22
2018-05-11T11:20:27.693Z,19.12
2018-05-11T11:22:55.261Z,19.66
2018-05-11T11:25:22.853Z,20.75
2018-05-11T11:27:50.386Z,22.46
2018-05-11T11:30:17.946Z,22.57
2018-05-11T11:32:45.594Z,20.29
2018-05-11T11:35:13.200Z,18.57
2018-05-11T11:37:40.810Z,18.03
2018-05-11T11:40:08.329Z,18.67
2018-05-11T11:42:35.866Z,17.45
2018-05-11T11:45:03.431Z,19.19
2018-05-11T11:47:30.987Z,17.43
2018-05-11T11:49:58.518Z,16.17
2018-05-11T11:52:26.285Z,18.41
2018-05-11T11:54:53.822Z,21.54
2018-05-11T11:57:26.187Z,22.75
2018-05-11T11:59:53.993Z,22.64
2018-05-11T12:02:21.661Z,21.18
2018-05-11T12:04:51.633Z,18.57
2018-05-11T12:07:20.465Z,18.47
2018-05-11T12:09:48.105Z,19.33
2018-05-11T12:12:16.816Z,16.56
2018-05-11T12:14:45.705Z,17.76
2018-05-11T12:17:13.674Z,19.63
2018-05-11T12:19:42.108Z,20.15
2018-05-11T12:22:10.032Z,20.86
2018-05-11T12:24:38.095Z,23.81
2018-05-11T12:27:06.270Z,20.84
2018-05-11T12:29:34.446Z,19.61
2018-05-11T12:32:03.219Z,19.38
2018-05-11T12:34:31.200Z,17.25
2018-05-11T12:36:59.167Z,15.65
2018-05-11T12:39:28.689Z,16.83
2018-05-11T12:41:57.229Z,15.98
2018-05-11T12:44:25.717Z,14.87
2018-05-11T12:46:54.005Z,14.40
2018-05-11T12:49:21.878Z,15.98
2018-05-11T12:51:49.643Z,17.94
2018-05-11T12:54:17.197Z,17.49
2018-05-11T12:56:45.790Z,15.93
2018-05-11T12:59:13.653Z,13.18
2018-05-11T13:01:41.277Z,12.72
2018-05-11T13:04:09.649Z,16.11
2018-05-11T13:06:37.405Z,15.12
2018-05-11T13:09:05.225Z,16.23
2018-05-11T13:11:32.779Z,16.27
2018-05-11T13:14:00.529Z,17.65
2018-05-11T13:16:28.375Z,16.21
2018-05-11T13:18:56.389Z,17.40
2018-05-11T13:21:24.558Z,16.69
2018-05-11T13:23:52.421Z,16.27
2018-05-11T13:26:20.268Z,16.97
2018-05-11T13:28:48.147Z,19.86
2018-05-11T13:31:16.801Z,21.71
2018-05-11T13:33:44.544Z,22.37
2018-05-11T13:36:12.345Z,21.60
2018-05-11T13:38:40.540Z,20.24
2018-05-11T13:41:08.137Z,18.70
2018-05-11T13:43:36.171Z,19.10
2018-05-11T13:46:03.936Z,19.01
2018-05-11T13:48:31.515Z,17.68
2018-05-11T13:50:59.506Z,18.93
2018-05-11T13:53:27.047Z,18.54
2018-05-11T13:55:55.407Z,19.94
2018-05-11T13:58:25.147Z,21.68
2018-05-11T14:00:53.387Z,23.21
2018-05-11T14:03:21.741Z,25.33
2018-05-11T14:05:49.855Z,26.69
2018-05-11T14:08:19.654Z,25.78
2018-05-11T14:10:47.311Z,26.28
2018-05-11T14:13:15.301Z,25.17
2018-05-11T14:15:42.868Z,23.12
2018-05-11T14:18:10.454Z,21.48
2018-05-11T14:20:40.416Z,21.18
2018-05-11T14:23:08.372Z,22.12
2018-05-11T14:25:36.252Z,23.16
2018-05-11T14:28:04.213Z,24.44
2018-05-11T14:30:32.495Z,26.14
2018-05-11T14:33:00.034Z,26.71
2018-05-11T14:35:27.649Z,26.58
2018-05-11T14:37:56.282Z,28.46
2018-05-11T14:40:24.578Z,29.33
2018-05-11T14:42:53.392Z,28.56
2018-05-11T14:45:21.949Z,29.36
2018-05-11T14:47:52.473Z,27.75
2018-05-11T14:50:20.244Z,26.91
2018-05-11T14:52:47.770Z,26.07
2018-05-11T14:55:18.464Z,25.53
2018-05-11T14:57:46.144Z,26.85
2018-05-11T15:00:13.856Z,27.45
2018-05-11T15:02:41.864Z,28.48
2018-05-11T15:05:09.672Z,29.96
2018-05-11T15:07:37.201Z,29.89
2018-05-11T15:10:05.010Z,30.35
2018-05-11T15:12:32.661Z,30.53
2018-05-11T15:15:02.085Z,31.73
2018-05-11T15:17:30.842Z,30.53
2018-05-11T15:19:58.840Z,30.30
2018-05-11T15:22:27.630Z,30.03
2018-05-11T15:24:55.392Z,31.00
2018-05-11T15:27:23.286Z,30.20
2018-05-11T15:29:53.078Z,31.22
2018-05-11T15:32:22.155Z,30.17
2018-05-11T15:34:51.805Z,29.94
2018-05-11T15:37:19.922Z,30.56
2018-05-11T15:39:47.473Z,30.21
2018-05-11T15:42:15.687Z,30.09
2018-05-11T15:44:43.228Z,30.12
2018-05-11T15:47:10.817Z,29.95
2018-05-11T15:49:39.825Z,31.53
2018-05-11T15:52:07.367Z,32.59
2018-05-11T15:54:34.933Z,32.38
2018-05-11T15:57:02.562Z,31.79
2018-05-11T15:59:30.103Z,31.63
2018-05-11T16:01:57.633Z,31.84
2018-05-11T16:04:25.528Z,31.33
2018-05-11T16:06:53.121Z,32.04
2018-05-11T16:09:20.892Z,32.50
2018-05-11T16:11:48.460Z,32.66
2018-05-11T16:14:16.622Z,32.86
2018-05-11T16:16:45.016Z,33.28
2018-05-11T16:19:12.730Z,33.14
2018-05-11T16:21:40.261Z,32.83
2018-05-11T16:24:07.781Z,33.01
2018-05-11T16:26:35.616Z,33.55
2018-05-11T16:29:03.198Z,33.08
2018-05-11T16:31:30.740Z,32.87
2018-05-11T16:33:58.510Z,32.93
2018-05-11T16:36:26.051Z,32.92
2018-05-11T16:38:53.574Z,33.27
2018-05-11T16:41:21.294Z,32.98
2018-05-11T16:43:49.031Z,34.37
2018-05-11T16:46:16.935Z,35.57
2018-05-11T16:48:44.495Z,35.28
2018-05-11T16:51:12.117Z,34.52
2018-05-11T16:53:39.589Z,34.51
2018-05-11T16:56:08.298Z,34.94
2018-05-11T16:58:35.820Z,35.32
2018-05-11T17:01:03.340Z,35.94
2018-05-11T17:03:31.061Z,36.11
2018-05-11T17:05:58.640Z,35.85
2018-05-11T17:08:26.170Z,35.31
2018-05-11T17:10:53.749Z,35.45
2018-05-11T17:13:21.274Z,35.86
2018-05-11T17:15:48.802Z,36.54
2018-05-11T17:18:16.359Z,36.70
2018-05-11T17:20:43.885Z,36.17
2018-05-11T17:23:11.414Z,37.10
2018-05-11T17:25:39.088Z,37.26
2018-05-11T17:28:07.024Z,37.14
2018-05-11T17:30:34.549Z,37.43
2018-05-11T17:33:02.105Z,37.29
2018-05-11T17:35:29.657Z,37.70
2018-05-11T17:37:58.143Z,37.52
2018-05-11T17:40:25.774Z,37.75
2018-05-11T17:42:53.413Z,38.52
2018-05-11T17:45:21.135Z,38.36
2018-05-11T17:47:48.726Z,38.76
2018-05-11T17:50:16.449Z,37.99
2018-05-11T17:52:43.992Z,39.05
2018-05-11T17:55:11.789Z,38.77
2018-05-11T17:57:39.319Z,39.79
2018-05-11T18:00:06.845Z,40.02
2018-05-11T18:02:34.637Z,40.40
2018-05-11T18:05:02.177Z,40.80
2018-05-11T18:07:29.705Z,41.21
2018-05-11T18:09:57.418Z,41.48
2018-05-11T18:12:25.172Z,41.92
2018-05-11T18:14:52.689Z,41.77
2018-05-11T18:17:20.319Z,41.74
2018-05-11T18:19:47.876Z,41.61
2018-05-11T18:22:15.403Z,42.11
2018-05-11T18:24:43.184Z,42.14
2018-05-11T18:27:10.700Z,42.39
2018-05-11T18:29:38.224Z,42.56
2018-05-11T18:32:06.290Z,42.44
2018-05-11T18:34:33.824Z,42.75
2018-05-11T18:37:01.380Z,42.85
2018-05-11T18:39:29.161Z,43.37
2018-05-11T18:41:57.243Z,43.01
2018-05-11T18:44:25.091Z,43.41
2018-05-11T18:46:52.953Z,43.17
2018-05-11T18:51:54.854Z,43.47
2018-05-11T18:54:22.808Z,43.92
2018-05-11T18:56:50.382Z,44.18
2018-05-11T18:59:18.448Z,44.23
2018-05-11T19:01:46.384Z,44.39
2018-05-11T19:04:13.913Z,44.30
2018-05-11T19:06:42.256Z,44.67
2018-05-11T19:09:10.200Z,44.84
2018-05-11T19:11:38.094Z,45.14
2018-05-11T19:14:06.575Z,45.60
2018-05-11T19:16:34.734Z,45.49
2018-05-11T19:19:02.409Z,45.71
2018-05-11T19:21:30.496Z,45.99
2018-05-11T19:23:58.248Z,46.21
2018-05-11T19:26:25.805Z,46.41
2018-05-11T19:28:53.750Z,46.23
2018-05-11T19:31:21.305Z,46.68
2018-05-11T19:33:49.099Z,46.88
2018-05-11T19:36:16.811Z,47.00
2018-05-11T19:38:44.627Z,47.22
2018-05-11T19:41:12.287Z,47.32
2018-05-11T19:43:42.000Z,47.44
2018-05-11T19:46:10.090Z,47.74
2018-05-11T19:48:37.700Z,48.46
2018-05-11T19:51:06.792Z,48.75
2018-05-11T19:53:34.466Z,48.39
2018-05-11T19:56:02.160Z,48.64
2018-05-11T19:58:29.958Z,48.81
2018-05-11T20:00:57.781Z,49.56
2018-05-11T20:03:25.545Z,49.46
2018-05-11T20:05:54.846Z,49.78
2018-05-11T20:08:22.814Z,49.63
2018-05-11T20:10:50.757Z,49.28
2018-05-11T20:13:18.854Z,49.69
2018-05-11T20:15:50.819Z,49.71
2018-05-11T20:18:18.819Z,50.29
2018-05-11T20:20:46.564Z,49.80
2018-05-11T20:23:14.413Z,50.29
2018-05-11T20:25:42.487Z,50.46
2018-05-11T20:28:10.203Z,50.61
2018-05-11T20:30:38.017Z,51.07
2018-05-11T20:33:05.890Z,50.54
2018-05-11T20:35:33.630Z,50.58
2018-05-11T20:38:01.964Z,51.32
2018-05-11T20:40:29.972Z,51.47
2018-05-11T20:42:58.163Z,51.39
2018-05-11T20:45:26.036Z,51.55
2018-05-11T20:47:54.208Z,51.81
2018-05-11T20:50:22.283Z,52.38
2018-05-11T20:52:50.149Z,52.38
2018-05-11T20:55:18.543Z,52.72
2018-05-11T20:57:46.403Z,52.72
2018-05-11T21:00:15.401Z,53.19
2018-05-11T21:02:43.973Z,53.25
2018-05-11T21:05:11.733Z,53.17
2018-05-11T21:07:39.721Z,53.48
2018-05-11T21:10:08.311Z,53.04
2018-05-11T21:12:36.581Z,53.50
2018-05-11T21:15:04.640Z,53.87
2018-05-11T21:17:33.421Z,54.32
2018-05-11T21:20:01.588Z,54.07
2018-05-11T21:22:29.900Z,54.55
2018-05-11T21:24:57.739Z,54.60
2018-05-11T21:27:25.604Z,54.58
2018-05-11T21:29:53.149Z,54.93
2018-05-11T21:32:22.288Z,55.00
2018-05-11T21:34:49.921Z,55.23
2018-05-11T21:37:17.584Z,55.31
2018-05-11T21:39:45.756Z,55.38
2018-05-11T21:42:13.292Z,55.87
2018-05-11T21:44:40.820Z,55.98
2018-05-11T21:47:08.377Z,56.27
2018-05-11T21:49:36.073Z,56.64
2018-05-11T21:52:04.192Z,56.66
2018-05-11T21:54:31.931Z,56.68
2018-05-11T21:56:59.557Z,56.82
2018-05-11T21:59:27.116Z,57.00
2018-05-11T22:01:54.797Z,57.55
2018-05-11T22:04:22.478Z,57.28
2018-05-11T22:06:50.011Z,57.26
2018-05-11T22:09:17.602Z,57.59
2018-05-11T22:11:45.282Z,58.07
2018-05-11T22:14:12.919Z,58.10
2018-05-11T22:16:40.632Z,58.05
2018-05-11T22:19:08.242Z,57.91
2018-05-11T22:21:35.834Z,58.07
2018-05-11T22:24:05.502Z,58.26
2018-05-11T22:26:33.094Z,58.27
2018-05-11T22:29:00.620Z,58.54
2018-05-11T22:31:28.394Z,58.61
2018-05-11T22:33:55.913Z,58.68
2018-05-11T22:36:23.457Z,58.79
2018-05-11T22:38:51.153Z,58.78
2018-05-11T22:41:18.718Z,58.67
2018-05-11T22:43:46.397Z,59.55
2018-05-11T22:46:14.954Z,59.64
2018-05-11T22:48:42.544Z,59.60
2018-05-11T22:51:10.904Z,60.13
2018-05-11T22:53:38.793Z,60.05
2018-05-11T22:56:07.105Z,60.28
2018-05-11T22:58:34.825Z,60.35
2018-05-11T23:01:02.568Z,60.71
2018-05-11T23:03:30.080Z,60.94
2018-05-11T23:05:58.016Z,61.06
2018-05-11T23:08:25.760Z,61.34
2018-05-11T23:10:53.277Z,61.46
2018-05-11T23:13:20.793Z,61.47
2018-05-11T23:15:48.593Z,61.76
2018-05-11T23:18:16.121Z,62.08
2018-05-11T23:20:43.642Z,62.31
2018-05-11T23:23:11.348Z,63.03
2018-05-11T23:25:38.870Z,62.84
2018-05-11T23:28:07.789Z,63.45
2018-05-11T23:30:35.728Z,63.72
2018-05-11T23:33:03.251Z,63.00
2018-05-11T23:35:30.778Z,63.01
2018-05-11T23:37:58.336Z,62.70
2018-05-11T23:40:25.868Z,62.74
2018-05-11T23:42:53.385Z,62.56
2018-05-11T23:45:20.941Z,62.34
2018-05-11T23:47:48.461Z,62.67
2018-05-11T23:50:16.727Z,62.74
2018-05-11T23:52:45.226Z,62.90
2018-05-11T23:55:12.747Z,63.28
2018-05-11T23:57:40.276Z,63.09
